Time;durP1;ratioP1;P1;durP2;ratioP2;P2;SDS_P1;SDS_P2;PMS_P1;PMS_P2;Temp;Humidity;BMP_temperature;BMP_pressure;BME280_temperature;BME280_humidity;BME280_pressure;Samples;Min_cycle;Max_cycle;Signal;HPM_P1;HPM_P2
2024/02/29 00:01:49;;;;;;;84.78;36.85;;;2.60;99.90;;;;;;5021245;28;20021;-70
2024/02/29 00:04:15;;;;;;;76.50;34.55;;;2.60;99.90;;;;;;5021030;28;20025;-70
2024/02/29 00:06:41;;;;;;;74.53;35.83;;;2.50;99.90;;;;;;5022963;28;20068;-70
2024/02/29 00:09:07;;;;;;;81.13;35.95;;;2.50;99.90;;;;;;5020462;28;20358;-71
2024/02/29 00:11:33;;;;;;;83.18;35.85;;;2.50;99.90;;;;;;5021627;28;20406;-70
2024/02/29 00:13:59;;;;;;;85.32;36.80;;;2.50;99.90;;;;;;5021603;28;20074;-70
2024/02/29 00:16:24;;;;;;;84.72;38.67;;;2.50;99.90;;;;;;5019097;28;20040;-70
2024/02/29 00:18:50;;;;;;;79.93;35.38;;;2.40;99.90;;;;;;5015206;28;20502;-70
2024/02/29 00:21:16;;;;;;;79.55;34.83;;;2.30;99.90;;;;;;5021148;28;20371;-70
2024/02/29 00:23:41;;;;;;;80.97;37.42;;;2.30;99.90;;;;;;5012796;28;20025;-70
2024/02/29 00:26:08;;;;;;;82.07;36.50;;;;;;;;;;5011715;28;20459;-70
2024/02/29 00:28:33;;;;;;;85.78;38.10;;;2.10;99.90;;;;;;5008008;28;20017;-70
2024/02/29 00:30:59;;;;;;;85.22;38.25;;;2.10;99.90;;;;;;5010352;28;20352;-71
2024/02/29 00:33:24;;;;;;;98.45;40.33;;;2.00;99.90;;;;;;5011526;28;20471;-70
2024/02/29 00:35:50;;;;;;;83.47;36.97;;;2.00;99.90;;;;;;5012165;28;20029;-70
2024/02/29 00:38:16;;;;;;;90.78;37.58;;;1.90;99.90;;;;;;4993740;28;20026;-70
2024/02/29 00:40:42;;;;;;;92.30;38.42;;;1.90;99.90;;;;;;5011769;28;20022;-70
2024/02/29 00:43:08;;;;;;;95.38;40.53;;;1.80;99.90;;;;;;5011463;28;20033;-70
2024/02/29 00:45:34;;;;;;;84.30;36.95;;;1.80;99.90;;;;;;5011965;28;20036;-70
2024/02/29 00:48:00;;;;;;;93.90;39.00;;;1.70;99.90;;;;;;5012244;28;20422;-70
2024/02/29 00:50:26;;;;;;;99.97;41.10;;;1.70;99.90;;;;;;5010780;28;20021;-70
2024/02/29 00:52:51;;;;;;;105.53;40.55;;;1.70;99.90;;;;;;5012997;28;20045;-70
2024/02/29 00:55:17;;;;;;;89.18;37.08;;;1.70;99.90;;;;;;5010758;28;20117;-71
2024/02/29 00:57:44;;;;;;;109.93;42.35;;;1.70;99.90;;;;;;5011788;28;20450;-70
2024/02/29 01:00:11;;;;;;;104.45;41.85;;;1.70;99.90;;;;;;5010686;28;20029;-70
2024/02/29 01:02:37;;;;;;;107.40;43.03;;;1.70;99.90;;;;;;5011298;28;20459;-70
2024/02/29 01:05:03;;;;;;;121.30;45.20;;;1.70;99.90;;;;;;5009391;28;20105;-70
2024/02/29 01:07:29;;;;;;;106.00;42.67;;;1.70;99.90;;;;;;5011679;28;21115;-70
2024/02/29 01:09:56;;;;;;;109.47;43.17;;;1.70;99.90;;;;;;5011369;28;20036;-70
2024/02/29 01:12:21;;;;;;;112.25;45.33;;;1.70;99.90;;;;;;5010169;28;20065;-70
2024/02/29 01:14:47;;;;;;;117.25;44.97;;;1.70;99.90;;;;;;4994003;28;20355;-70
2024/02/29 01:17:13;;;;;;;110.22;45.88;;;1.70;99.90;;;;;;5011125;28;20037;-71
2024/02/29 01:19:38;;;;;;;110.82;44.95;;;1.70;99.90;;;;;;4993350;28;20344;-70
2024/02/29 01:22:04;;;;;;;94.25;40.72;;;1.70;99.90;;;;;;5010150;28;20049;-70
2024/02/29 01:24:30;;;;;;;94.22;38.67;;;1.60;99.90;;;;;;5011109;28;20053;-70
2024/02/29 01:26:55;;;;;;;112.40;43.42;;;1.50;99.90;;;;;;5011604;28;20022;-70
2024/02/29 01:29:22;;;;;;;103.30;42.83;;;1.50;99.90;;;;;;5010163;28;20034;-70
2024/02/29 01:31:48;;;;;;;109.38;43.53;;;1.40;99.90;;;;;;5009396;28;20028;-69
2024/02/29 01:34:14;;;;;;;110.15;44.20;;;1.30;99.90;;;;;;5009966;28;20036;-69
2024/02/29 01:36:42;;;;;;;109.25;42.65;;;1.30;99.90;;;;;;5011554;28;20088;-69
2024/02/29 01:39:08;;;;;;;103.50;41.90;;;1.30;99.90;;;;;;4991153;28;20080;-68
2024/02/29 01:41:34;;;;;;;99.53;39.65;;;1.20;99.90;;;;;;5011087;28;20105;-71
2024/02/29 01:43:59;;;;;;;113.53;43.95;;;1.20;99.90;;;;;;5011444;28;20052;-71
2024/02/29 01:46:25;;;;;;;115.32;45.58;;;1.10;99.90;;;;;;5008855;28;20076;-69
2024/02/29 01:48:52;;;;;;;111.38;45.28;;;1.10;99.90;;;;;;5010980;28;20110;-70
2024/02/29 01:51:18;;;;;;;117.45;45.42;;;1.10;99.90;;;;;;5009802;28;20451;-71
2024/02/29 01:53:44;;;;;;;112.80;44.45;;;1.10;99.90;;;;;;5011315;28;20071;-70
2024/02/29 01:56:12;;;;;;;110.97;43.28;;;1.10;99.90;;;;;;5009488;28;20520;-70
2024/02/29 01:58:39;;;;;;;145.93;52.28;;;1.00;99.90;;;;;;5011032;28;20030;-71
2024/02/29 02:01:05;;;;;;;122.70;46.67;;;1.00;99.90;;;;;;5010104;28;20101;-70
2024/02/29 02:03:31;;;;;;;123.30;48.10;;;1.00;99.90;;;;;;5011240;28;20096;-71
2024/02/29 02:05:57;;;;;;;110.25;43.47;;;1.00;99.90;;;;;;5008512;28;20471;-71
2024/02/29 02:08:26;;;;;;;125.90;46.85;;;1.00;99.90;;;;;;5010037;28;20030;-70
2024/02/29 02:10:52;;;;;;;118.70;44.85;;;1.00;99.90;;;;;;5010077;28;20424;-71
2024/02/29 02:13:17;;;;;;;125.80;48.63;;;0.90;99.90;;;;;;5009661;28;20102;-70
2024/02/29 02:15:43;;;;;;;120.35;46.45;;;0.90;99.90;;;;;;5010445;28;20037;-71
2024/02/29 02:18:09;;;;;;;130.32;49.28;;;0.90;99.90;;;;;;5009892;28;20029;-68
2024/02/29 02:20:34;;;;;;;118.32;44.80;;;0.90;99.90;;;;;;5009412;28;20058;-70
2024/02/29 02:23:00;;;;;;;110.18;46.47;;;0.90;99.90;;;;;;5010916;28;20019;-71
2024/02/29 02:25:26;;;;;;;128.48;46.47;;;0.80;99.90;;;;;;5009302;28;20026;-70
2024/02/29 02:27:51;;;;;;;121.95;44.88;;;0.80;99.90;;;;;;4993572;28;20097;-71
2024/02/29 02:30:17;;;;;;;110.25;43.13;;;0.80;99.90;;;;;;5006972;28;20030;-70
2024/02/29 02:32:42;;;;;;;121.90;45.30;;;0.70;99.90;;;;;;5010904;28;20029;-70
2024/02/29 02:35:09;;;;;;;130.88;47.72;;;0.70;99.90;;;;;;5009084;28;20022;-70
2024/02/29 02:37:36;;;;;;;120.43;46.00;;;0.60;99.90;;;;;;4992780;28;20792;-70
2024/02/29 02:40:04;;;;;;;138.48;49.08;;;0.70;99.90;;;;;;5008373;28;20033;-70
2024/02/29 02:42:30;;;;;;;123.00;46.13;;;0.60;99.90;;;;;;5010252;28;20029;-70
2024/02/29 02:44:56;;;;;;;114.40;43.85;;;0.60;99.90;;;;;;5009984;28;20046;-70
2024/02/29 02:47:21;;;;;;;111.75;43.67;;;0.60;99.90;;;;;;5009150;28;20062;-70
2024/02/29 02:49:47;;;;;;;120.78;44.72;;;0.50;99.90;;;;;;5010009;28;20021;-70
2024/02/29 02:52:13;;;;;;;130.32;45.70;;;0.50;99.90;;;;;;5009341;28;20125;-69
2024/02/29 02:54:39;;;;;;;128.70;45.55;;;0.50;99.90;;;;;;5009788;28;20137;-70
2024/02/29 02:57:05;;;;;;;126.38;44.75;;;0.40;99.90;;;;;;5010495;28;20446;-69
2024/02/29 02:59:30;;;;;;;130.25;46.80;;;0.40;99.90;;;;;;5008008;28;20022;-70
2024/02/29 03:01:56;;;;;;;137.52;46.88;;;0.30;99.90;;;;;;5014480;28;20029;-70
2024/02/29 03:04:21;;;;;;;124.32;45.22;;;0.40;99.90;;;;;;5010931;28;20045;-70
2024/02/29 03:06:47;;;;;;;114.68;43.72;;;0.40;99.90;;;;;;5014265;28;20076;-70
2024/02/29 03:09:12;;;;;;;129.98;44.67;;;0.40;99.90;;;;;;5012686;28;20029;-70
2024/02/29 03:11:38;;;;;;;119.65;44.42;;;0.40;99.90;;;;;;5013880;28;20050;-69
2024/02/29 03:14:04;;;;;;;124.05;46.72;;;0.40;99.90;;;;;;5012563;28;20029;-69
2024/02/29 03:16:31;;;;;;;142.35;47.92;;;0.30;99.90;;;;;;5013152;28;20083;-69
2024/02/29 03:18:57;;;;;;;128.02;44.28;;;0.30;99.90;;;;;;4997087;28;20022;-70
2024/02/29 03:21:23;;;;;;;134.23;45.28;;;0.40;99.90;;;;;;5011274;28;20116;-70
2024/02/29 03:23:49;;;;;;;128.75;45.45;;;0.40;99.90;;;;;;5013757;28;20447;-70
2024/02/29 03:26:15;;;;;;;124.60;42.78;;;0.40;99.90;;;;;;5012754;28;20040;-70
2024/02/29 03:28:41;;;;;;;121.03;42.50;;;0.40;99.90;;;;;;5013747;28;20046;-70
2024/02/29 03:31:11;;;;;;;126.40;42.83;;;0.40;99.90;;;;;;5009780;28;20072;-69
2024/02/29 03:33:37;;;;;;;116.72;41.55;;;0.40;99.90;;;;;;5013510;28;20462;-70
2024/02/29 03:36:03;;;;;;;136.20;44.42;;;0.40;99.90;;;;;;5012761;28;20129;-70
2024/02/29 03:38:28;;;;;;;138.63;46.63;;;0.40;99.90;;;;;;5011923;28;20065;-70
2024/02/29 03:40:54;;;;;;;132.32;43.50;;;0.30;99.90;;;;;;4995327;28;20026;-70
2024/02/29 03:43:19;;;;;;;124.57;43.03;;;0.30;99.90;;;;;;5012657;28;20097;-70
2024/02/29 03:45:45;;;;;;;133.05;44.13;;;0.20;99.90;;;;;;5012746;28;20018;-68
2024/02/29 03:48:10;;;;;;;126.80;44.35;;;0.20;99.90;;;;;;5011521;28;20034;-70
2024/02/29 03:50:36;;;;;;;143.98;46.35;;;0.20;99.90;;;;;;5012873;28;20022;-70
2024/02/29 03:53:02;;;;;;;143.88;46.35;;;0.20;99.90;;;;;;5013430;28;20420;-70
2024/02/29 03:55:28;;;;;;;148.68;44.45;;;0.20;99.90;;;;;;5012408;28;20045;-70
2024/02/29 03:57:54;;;;;;;142.68;44.85;;;0.20;99.90;;;;;;5013267;28;20053;-70
2024/02/29 04:00:19;;;;;;;157.45;48.30;;;0.20;99.90;;;;;;5011764;28;20030;-70
2024/02/29 04:05:36;;;;;;;143.80;43.88;;;0.20;99.90;;;;;;5010498;28;20079;-68
2024/02/29 04:08:03;;;;;;;144.57;44.70;;;0.20;99.90;;;;;;5012962;28;20469;-69
2024/02/29 04:10:30;;;;;;;136.43;45.15;;;0.20;99.90;;;;;;5011904;28;20096;-69
2024/02/29 04:12:58;;;;;;;124.75;42.80;;;0.20;99.90;;;;;;5012017;28;20084;-70
2024/02/29 04:15:24;;;;;;;130.85;43.55;;;0.20;99.90;;;;;;5011514;28;20311;-70
2024/02/29 04:17:49;;;;;;;140.93;44.55;;;0.10;99.90;;;;;;5013017;28;20018;-70
2024/02/29 04:20:15;;;;;;;127.68;43.72;;;0.10;99.90;;;;;;5011483;28;20030;-70
2024/02/29 04:22:41;;;;;;;125.85;42.42;;;0.10;99.90;;;;;;5011786;28;20022;-70
2024/02/29 04:25:10;;;;;;;128.80;42.88;;;0.00;99.90;;;;;;5008358;28;20057;-70
2024/02/29 04:27:36;;;;;;;148.43;46.25;;;0.00;99.90;;;;;;5012472;28;20040;-70
2024/02/29 04:30:03;;;;;;;156.00;47.47;;;0.00;99.90;;;;;;5012131;28;20105;-70
2024/02/29 04:32:29;;;;;;;141.02;47.05;;;0.00;99.90;;;;;;5011848;28;20038;-70
2024/02/29 04:34:54;;;;;;;143.00;45.13;;;0.00;99.90;;;;;;5012264;28;20096;-70
2024/02/29 04:37:20;;;;;;;143.88;45.50;;;0.00;99.90;;;;;;5011362;28;20072;-70
2024/02/29 04:39:45;;;;;;;132.00;42.80;;;-0.10;99.90;;;;;;5011273;28;20034;-70
2024/02/29 04:42:11;;;;;;;139.48;44.72;;;-0.10;99.90;;;;;;5009705;28;20036;-70
2024/02/29 04:44:37;;;;;;;131.93;44.90;;;-0.10;99.90;;;;;;4994208;28;20014;-70
2024/02/29 04:47:03;;;;;;;158.73;48.30;;;-0.20;99.90;;;;;;5012122;28;20093;-69
2024/02/29 04:49:28;;;;;;;151.95;47.33;;;-0.20;99.90;;;;;;5009244;28;20475;-70
2024/02/29 04:51:54;;;;;;;166.23;50.10;;;-0.20;99.90;;;;;;4995118;28;20109;-70
2024/02/29 04:54:20;;;;;;;177.95;51.60;;;-0.20;99.90;;;;;;5010777;28;20029;-69
2024/02/29 04:56:46;;;;;;;151.80;45.17;;;-0.20;99.90;;;;;;5012066;28;20021;-70
2024/02/29 04:59:12;;;;;;;140.38;45.65;;;-0.20;99.90;;;;;;5010504;28;20395;-70
2024/02/29 05:01:38;;;;;;;149.32;46.67;;;-0.20;99.90;;;;;;4995035;28;20041;-69
2024/02/29 05:04:03;;;;;;;144.38;46.22;;;-0.20;99.90;;;;;;5011427;28;20029;-69
2024/02/29 05:06:29;;;;;;;155.50;47.75;;;-0.30;99.90;;;;;;5012627;28;20014;-70
2024/02/29 05:08:55;;;;;;;158.82;50.88;;;-0.30;99.90;;;;;;5013584;28;20017;-70
2024/02/29 05:11:20;;;;;;;171.65;52.50;;;-0.30;99.90;;;;;;5011231;28;20149;-69
2024/02/29 05:13:46;;;;;;;169.40;51.03;;;-0.20;99.90;;;;;;5018307;28;20328;-70
2024/02/29 05:16:15;;;;;;;180.77;53.95;;;-0.10;99.90;;;;;;5018907;28;20430;-69
2024/02/29 05:18:41;;;;;;;176.73;53.92;;;0.10;99.90;;;;;;5021368;28;20061;-70
2024/02/29 05:21:07;;;;;;;181.77;53.38;;;;;;;;;;5020505;28;20038;-70
2024/02/29 05:23:33;;;;;;;165.95;51.28;;;;;;;;;;5022701;28;20017;-70
2024/02/29 05:25:59;;;;;;;159.65;50.95;;;;;;;;;;5021768;28;20021;-70
2024/02/29 05:28:26;;;;;;;168.25;51.28;;;;;;;;;;5020192;28;20076;-70
2024/02/29 05:30:52;;;;;;;161.18;50.13;;;;;;;;;;5016780;28;20105;-70
2024/02/29 05:33:18;;;;;;;142.48;48.63;;;;;;;;;;5010786;28;20021;-69
2024/02/29 05:35:48;;;;;;;144.13;47.30;;;;;;;;;;5011394;28;20076;-69
2024/02/29 05:38:15;;;;;;;148.25;46.67;;;;;;;;;;5009589;28;20045;-70
2024/02/29 05:40:40;;;;;;;160.77;51.53;;;;;;;;;;5011597;28;20056;-70
2024/02/29 05:43:07;;;;;;;150.77;49.50;;;;;;;;;;5011305;28;20018;-69
2024/02/29 05:45:33;;;;;;;140.52;46.33;;;;;;;;;;5012431;28;20375;-71
2024/02/29 05:47:58;;;;;;;147.82;48.25;;;;;;;;;;5011903;28;20018;-70
2024/02/29 05:50:24;;;;;;;141.95;48.35;;;;;;;;;;5012419;28;20029;-70
2024/02/29 05:52:52;;;;;;;148.55;49.25;;;;;;;;;;5014094;28;20045;-70
2024/02/29 05:55:18;;;;;;;147.43;49.88;;;;;;;;;;5009674;28;20025;-70
2024/02/29 05:57:44;;;;;;;155.40;51.22;;;;;;;;;;5010881;28;20038;-70
2024/02/29 06:00:10;;;;;;;174.48;51.88;;;;;;;;;;5010340;28;20033;-70
2024/02/29 06:02:36;;;;;;;157.00;48.97;;;;;;;;;;5011762;28;20075;-70
2024/02/29 06:05:04;;;;;;;158.75;51.10;;;;;;;;;;5008446;28;20033;-69
2024/02/29 06:07:30;;;;;;;152.43;48.28;;;;;;;;;;5010595;28;20046;-70
2024/02/29 06:09:56;;;;;;;148.25;48.35;;;;;;;;;;5010205;28;20053;-70
2024/02/29 06:12:22;;;;;;;148.00;48.25;;;;;;;;;;5015106;28;20018;-71
2024/02/29 06:14:49;;;;;;;152.68;48.05;;;;;;;;;;5019696;28;20098;-70
2024/02/29 06:17:16;;;;;;;172.68;50.60;;;;;;;;;;5019449;28;20021;-69
2024/02/29 06:19:42;;;;;;;171.93;51.90;;;;;;;;;;5016421;28;20033;-70
2024/02/29 06:22:08;;;;;;;175.60;49.20;;;;;;;;;;5017814;28;20052;-69
2024/02/29 06:24:34;;;;;;;160.35;51.25;;;;;;;;;;5019886;28;20362;-70
2024/02/29 06:27:00;;;;;;;155.82;49.55;;;;;;;;;;5020098;28;20107;-70
2024/02/29 06:29:26;;;;;;;158.32;51.28;;;;;;;;;;5019060;28;20026;-70
2024/02/29 06:31:52;;;;;;;177.85;52.42;;;;;;;;;;5022488;28;20060;-71
2024/02/29 06:34:18;;;;;;;162.20;51.72;;;;;;;;;;5018801;28;20124;-69
2024/02/29 06:36:47;;;;;;;157.38;51.25;;;;;;;;;;5016881;28;20026;-70
2024/02/29 06:39:13;;;;;;;165.43;51.80;;;;;;;;;;5014842;28;20251;-69
2024/02/29 06:41:42;;;;;;;168.55;52.63;;;;;;;;;;5016668;28;20455;-69
2024/02/29 06:44:09;;;;;;;191.55;57.78;;;;;;;;;;5018041;28;20427;-69
2024/02/29 06:46:35;;;;;;;180.98;55.53;;;;;;;;;;5025456;28;20376;-70
2024/02/29 06:49:01;;;;;;;195.43;57.75;;;;;;;;;;5024940;28;20108;-70
2024/02/29 06:51:28;;;;;;;190.18;58.35;;;;;;;;;;5022474;28;20435;-70
2024/02/29 06:53:56;;;;;;;193.00;58.53;;;;;;;;;;5025400;28;20049;-69
2024/02/29 06:56:23;;;;;;;182.60;57.65;;;;;;;;;;5023511;28;20668;-70
2024/02/29 06:58:49;;;;;;;186.15;55.58;;;;;;;;;;5025961;28;20091;-69
2024/02/29 07:01:19;;;;;;;166.40;53.97;;;;;;;;;;5024476;28;20026;-70
2024/02/29 07:03:45;;;;;;;177.05;55.65;;;;;;;;;;5020907;28;20037;-69
2024/02/29 07:06:11;;;;;;;158.65;52.13;;;;;;;;;;5022757;28;20010;-70
2024/02/29 07:08:37;;;;;;;157.40;53.70;;;;;;;;;;5026134;28;20060;-69
2024/02/29 07:11:03;;;;;;;149.35;51.92;;;;;;;;;;5022035;28;20144;-68
2024/02/29 07:13:30;;;;;;;141.23;50.00;;;;;;;;;;5026545;28;20030;-70
2024/02/29 07:15:56;;;;;;;140.30;50.50;;;;;;;;;;5018774;28;20036;-70
2024/02/29 07:18:23;;;;;;;135.60;50.83;;;;;;;;;;5015429;28;20470;-78
2024/02/29 07:20:50;;;;;;;134.73;49.10;;;;;;;;;;5014001;28;20068;-69
2024/02/29 07:23:16;;;;;;;125.38;48.30;;;;;;;;;;5010129;28;20080;-69
2024/02/29 07:25:42;;;;;;;125.50;46.95;;;;;;;;;;5013508;28;20486;-70
2024/02/29 07:28:08;;;;;;;125.88;47.40;;;;;;;;;;5012938;28;20018;-71
2024/02/29 07:30:34;;;;;;;114.82;46.78;;;;;;;;;;4996081;28;20057;-73
2024/02/29 07:33:04;;;;;;;111.65;45.38;;;;;;;;;;5021099;28;20022;-70
2024/02/29 07:35:31;;;;;;;110.93;45.33;;;;;;;;;;5013898;28;20481;-69
2024/02/29 07:37:57;;;;;;;110.57;44.72;;;;;;;;;;5002968;28;20761;-70
2024/02/29 07:40:23;;;;;;;92.30;40.42;;;;;;;;;;5013836;28;20061;-70
2024/02/29 07:42:49;;;;;;;95.00;41.55;;;;;;;;;;5022839;28;20060;-70
2024/02/29 07:45:15;;;;;;;97.93;42.95;;;;;;;;;;5009150;28;20025;-70
2024/02/29 07:47:41;;;;;;;108.40;44.45;;;;;;;;;;5014437;28;20025;-70
2024/02/29 07:50:09;;;;;;;105.75;45.65;;;;;;;;;;5011641;28;20053;-70
2024/02/29 07:52:35;;;;;;;104.60;43.83;;;;;;;;;;5011141;28;20033;-69
2024/02/29 07:55:02;;;;;;;95.60;42.00;;;;;;;;;;5015917;28;20076;-73
2024/02/29 07:57:28;;;;;;;90.13;40.50;;;;;;;;;;5012732;28;20367;-70
2024/02/29 07:59:54;;;;;;;81.75;36.88;;;;;;;;;;5011830;28;20460;-70
2024/02/29 08:02:20;;;;;;;62.85;32.85;;;;;;;;;;5011142;28;20034;-71
2024/02/29 08:04:46;;;;;;;65.28;34.38;;;2.40;99.90;;;;;;4994496;28;20014;-71
2024/02/29 08:07:11;;;;;;;64.10;33.13;;;2.40;99.90;;;;;;5012253;28;20456;-77
2024/02/29 08:09:37;;;;;;;55.78;30.52;;;2.40;99.90;;;;;;5012895;28;20030;-74
2024/02/29 08:12:03;;;;;;;54.40;27.60;;;2.60;99.90;;;;;;5016764;28;20026;-70
2024/02/29 08:14:29;;;;;;;46.40;26.35;;;2.60;99.90;;;;;;4983366;28;20041;-70
2024/02/29 08:16:55;;;;;;;51.53;26.77;;;2.70;99.90;;;;;;5011550;28;20101;-70
2024/02/29 08:19:21;;;;;;;51.88;27.52;;;2.80;99.90;;;;;;5009745;28;20167;-69
2024/02/29 08:21:47;;;;;;;46.38;26.13;;;2.80;99.90;;;;;;5019991;28;20037;-69
2024/02/29 08:24:13;;;;;;;52.10;27.58;;;2.80;99.90;;;;;;5021478;28;20033;-69
2024/02/29 08:26:39;;;;;;;45.65;27.25;;;2.80;99.90;;;;;;5020901;28;20386;-70
2024/02/29 08:29:05;;;;;;;49.42;27.33;;;2.90;99.90;;;;;;5018247;28;20026;-69
2024/02/29 08:31:31;;;;;;;50.83;27.35;;;2.90;99.90;;;;;;5014206;28;20032;-69
2024/02/29 08:33:57;;;;;;;53.15;27.08;;;3.10;99.90;;;;;;5019514;28;20100;-69
2024/02/29 08:36:22;;;;;;;57.65;28.55;;;3.10;99.90;;;;;;5017925;28;20036;-69
2024/02/29 08:38:48;;;;;;;48.67;25.95;;;3.30;99.90;;;;;;5019462;28;20362;-70
2024/02/29 08:41:14;;;;;;;44.85;25.83;;;3.40;99.90;;;;;;5017919;28;20116;-69
2024/02/29 08:43:45;;;;;;;46.78;26.30;;;3.50;99.90;;;;;;5022769;28;20017;-69
2024/02/29 08:46:11;;;;;;;43.35;25.75;;;3.60;99.90;;;;;;5011905;28;20509;-69
2024/02/29 08:48:36;;;;;;;48.38;25.92;;;3.70;99.90;;;;;;5014016;28;20034;-69
2024/02/29 08:51:03;;;;;;;47.50;27.20;;;3.80;99.90;;;;;;5018149;28;20026;-69
2024/02/29 08:53:28;;;;;;;48.85;25.75;;;3.90;99.90;;;;;;5019902;28;20046;-69
2024/02/29 08:55:54;;;;;;;44.33;24.55;;;4.00;99.90;;;;;;5020583;28;20014;-69
2024/02/29 08:58:20;;;;;;;46.30;25.58;;;4.20;99.90;;;;;;5020114;28;20025;-69
2024/02/29 09:00:46;;;;;;;43.70;24.25;;;4.20;99.90;;;;;;5020575;28;20037;-70
2024/02/29 09:03:14;;;;;;;45.13;25.65;;;4.20;99.90;;;;;;5019846;28;20033;-69
2024/02/29 09:05:41;;;;;;;49.78;26.00;;;4.30;99.90;;;;;;5019569;28;20048;-69
2024/02/29 09:08:07;;;;;;;42.90;24.73;;;4.50;99.90;;;;;;5016965;28;20021;-69
2024/02/29 09:10:34;;;;;;;46.85;26.30;;;4.60;99.90;;;;;;5017780;28;20026;-69
2024/02/29 09:13:00;;;;;;;48.13;25.88;;;4.60;99.90;;;;;;5018813;28;20100;-69
2024/02/29 09:15:26;;;;;;;52.65;27.23;;;4.70;99.90;;;;;;5018864;28;20112;-69
2024/02/29 09:17:51;;;;;;;45.97;25.95;;;4.80;99.90;;;;;;5002607;28;20041;-70
2024/02/29 09:20:18;;;;;;;43.65;25.08;;;4.80;99.90;;;;;;5019284;28;20434;-69
2024/02/29 09:22:44;;;;;;;50.67;27.52;;;5.00;99.90;;;;;;5021491;28;20034;-68
2024/02/29 09:25:10;;;;;;;52.00;26.90;;;5.00;99.90;;;;;;5019481;28;20026;-69
2024/02/29 09:27:35;;;;;;;42.42;23.95;;;5.20;99.90;;;;;;5003090;28;20359;-68
2024/02/29 09:30:01;;;;;;;46.55;25.27;;;5.20;99.90;;;;;;5018237;28;20030;-68
2024/02/29 09:32:27;;;;;;;48.75;26.05;;;5.30;99.90;;;;;;5019046;28;20045;-68
2024/02/29 09:34:52;;;;;;;45.72;24.27;;;5.40;99.90;;;;;;5020004;28;20044;-68
2024/02/29 09:37:18;;;;;;;43.72;24.70;;;5.50;99.90;;;;;;5016030;28;20027;-68
2024/02/29 09:39:43;;;;;;;43.35;25.67;;;5.50;99.90;;;;;;5018441;28;20473;-68
2024/02/29 09:42:09;;;;;;;46.75;26.05;;;5.70;99.90;;;;;;5018659;28;20104;-68
2024/02/29 09:44:36;;;;;;;42.50;25.23;;;5.80;99.90;;;;;;5019484;28;20396;-69
2024/02/29 09:47:03;;;;;;;43.80;25.40;;;5.90;99.90;;;;;;5021587;28;20032;-69
2024/02/29 09:49:29;;;;;;;46.15;25.88;;;6.10;99.90;;;;;;5014581;28;20301;-70
2024/02/29 09:51:55;;;;;;;46.78;26.25;;;6.20;99.90;;;;;;5017448;28;20014;-69
2024/02/29 09:54:22;;;;;;;46.53;25.75;;;6.30;99.90;;;;;;5010006;28;20029;-69
2024/02/29 09:56:47;;;;;;;45.05;25.33;;;6.40;99.90;;;;;;5003431;28;20071;-72
2024/02/29 09:59:15;;;;;;;45.80;27.00;;;6.60;99.90;;;;;;5009303;28;20218;-69
2024/02/29 10:01:44;;;;;;;46.15;25.77;;;6.70;99.90;;;;;;5010644;28;20029;-72
2024/02/29 10:04:10;;;;;;;46.83;25.08;;;6.80;99.90;;;;;;5010074;28;20108;-72
2024/02/29 10:06:35;;;;;;;50.58;27.85;;;6.80;99.90;;;;;;5007444;28;20094;-71
2024/02/29 10:09:01;;;;;;;46.13;26.45;;;7.00;99.90;;;;;;5009790;28;20077;-71
2024/02/29 10:11:28;;;;;;;48.50;26.13;;;7.00;99.90;;;;;;5009433;28;20023;-73
2024/02/29 10:13:54;;;;;;;48.05;26.70;;;7.10;99.90;;;;;;5011053;28;20498;-74
2024/02/29 10:16:19;;;;;;;52.10;27.85;;;7.20;99.90;;;;;;5001777;28;20113;-73
2024/02/29 10:18:45;;;;;;;46.20;26.23;;;7.30;99.90;;;;;;5010389;28;20445;-70
2024/02/29 10:21:13;;;;;;;49.38;26.40;;;7.30;99.90;;;;;;4994596;28;20080;-71
2024/02/29 10:23:43;;;;;;;46.70;26.50;;;7.40;99.90;;;;;;5010025;28;20018;-70
2024/02/29 10:26:08;;;;;;;50.08;27.52;;;7.50;99.90;;;;;;5007050;28;20443;-70
2024/02/29 10:28:35;;;;;;;48.50;26.98;;;7.60;99.90;;;;;;5002860;28;20086;-74
2024/02/29 10:31:01;;;;;;;51.45;26.40;;;7.70;99.90;;;;;;5009910;28;20036;-70
2024/02/29 10:33:27;;;;;;;47.33;26.50;;;7.80;99.90;;;;;;5008108;28;20026;-70
2024/02/29 10:35:54;;;;;;;50.85;27.25;;;7.90;99.90;;;;;;5009777;28;20027;-70
2024/02/29 10:38:23;;;;;;;47.85;25.65;;;8.00;99.90;;;;;;5008903;28;20371;-70
2024/02/29 10:41:00;;;;;;;47.40;25.92;;;8.10;99.90;;;;;;4980872;28;20018;-70
2024/02/29 10:43:30;;;;;;;47.25;26.67;;;8.20;99.90;;;;;;5009359;28;20085;-71
2024/02/29 10:45:58;;;;;;;50.65;26.13;;;8.50;99.90;;;;;;5009511;28;20486;-70
2024/02/29 10:48:36;;;;;;;46.10;26.02;;;;;;;;;;5011156;28;20030;-70
2024/02/29 10:51:22;;;;;;;47.80;27.27;;;8.70;99.90;;;;;;4999699;28;20037;-71
2024/02/29 10:54:04;;;;;;;44.28;25.98;;;8.90;99.90;;;;;;5009897;28;20046;-70
2024/02/29 10:56:31;;;;;;;42.63;24.98;;;9.00;99.90;;;;;;5012377;28;20116;-72
2024/02/29 10:59:03;;;;;;;43.83;25.20;;;9.20;99.90;;;;;;5010209;28;20061;-71
2024/02/29 11:01:33;;;;;;;43.20;27.15;;;9.30;99.90;;;;;;5009988;28;20057;-69
2024/02/29 11:03:59;;;;;;;45.78;25.98;;;9.40;99.90;;;;;;5011108;28;20033;-70
2024/02/29 11:06:28;;;;;;;46.40;26.52;;;9.60;99.90;;;;;;5009832;28;20049;-69
2024/02/29 11:08:55;;;;;;;40.47;25.00;;;9.70;99.90;;;;;;5003804;28;20041;-70
2024/02/29 11:11:25;;;;;;;40.30;23.85;;;9.90;99.90;;;;;;5008474;28;20122;-69
2024/02/29 11:14:10;;;;;;;44.83;24.00;;;10.10;99.90;;;;;;5010163;28;20527;-69
2024/02/29 11:16:45;;;;;;;36.47;22.58;;;10.20;99.90;;;;;;4999906;28;20033;-69
2024/02/29 11:19:16;;;;;;;34.13;22.23;;;10.30;99.90;;;;;;5009640;28;20018;-69
2024/02/29 11:21:41;;;;;;;37.55;22.60;;;10.40;99.90;;;;;;5013728;28;20021;-69
2024/02/29 11:24:09;;;;;;;33.50;21.52;;;10.60;99.90;;;;;;5012184;28;20029;-69
2024/02/29 11:26:36;;;;;;;32.90;19.70;;;10.70;99.90;;;;;;5005945;28;20024;-70
2024/02/29 11:29:19;;;;;;;29.55;18.80;;;10.80;99.90;;;;;;5013350;28;20029;-69
2024/02/29 11:31:48;;;;;;;29.63;18.77;;;11.00;99.90;;;;;;5010941;28;20026;-69
2024/02/29 11:34:18;;;;;;;25.75;17.63;;;11.10;99.90;;;;;;5012424;28;20530;-69
2024/02/29 11:36:45;;;;;;;32.45;19.25;;;11.20;99.90;;;;;;4994785;28;20351;-69
2024/02/29 11:39:11;;;;;;;33.33;19.88;;;11.30;99.90;;;;;;5011868;28;20447;-70
2024/02/29 11:41:37;;;;;;;28.70;18.92;;;11.30;99.90;;;;;;5007507;28;20041;-70
2024/02/29 11:44:03;;;;;;;30.05;19.00;;;11.40;99.90;;;;;;5013043;28;20022;-70
2024/02/29 11:46:29;;;;;;;29.40;18.95;;;11.50;99.90;;;;;;5012330;28;20045;-69
2024/02/29 11:48:55;;;;;;;26.45;17.63;;;11.70;99.90;;;;;;5013850;28;20151;-69
2024/02/29 11:51:21;;;;;;;25.25;17.85;;;11.80;99.90;;;;;;5015600;28;20448;-69
2024/02/29 11:53:48;;;;;;;26.60;16.85;;;11.70;99.90;;;;;;5013103;28;20045;-70
2024/02/29 11:56:14;;;;;;;27.08;18.15;;;11.80;99.90;;;;;;5011138;28;20030;-69
2024/02/29 11:58:39;;;;;;;28.13;18.17;;;11.90;99.90;;;;;;5012912;28;20336;-70
2024/02/29 12:01:06;;;;;;;29.17;17.83;;;12.00;99.90;;;;;;5011644;28;20026;-68
2024/02/29 12:03:32;;;;;;;25.40;17.00;;;12.00;99.90;;;;;;5013290;28;20112;-69
2024/02/29 12:05:58;;;;;;;23.00;15.40;;;12.00;99.90;;;;;;5011185;28;20467;-69
2024/02/29 12:08:28;;;;;;;27.13;18.35;;;12.10;99.90;;;;;;5011253;28;20045;-71
2024/02/29 12:11:00;;;;;;;;;;;12.30;99.90;;;;;;5012858;28;20029;-71
2024/02/29 12:13:28;;;;;;;28.15;17.15;;;12.40;99.90;;;;;;5011932;28;19911;-71
2024/02/29 12:15:55;;;;;;;23.67;16.27;;;12.50;99.90;;;;;;5010595;28;20045;-72
2024/02/29 12:18:21;;;;;;;27.08;16.95;;;12.80;99.90;;;;;;5011849;28;20044;-71
2024/02/29 12:20:51;;;;;;;23.85;16.50;;;13.00;99.90;;;;;;5012848;28;20422;-69
2024/02/29 12:23:18;;;;;;;28.63;17.23;;;13.30;99.90;;;;;;5011701;28;20045;-70
2024/02/29 12:25:44;;;;;;;23.13;15.93;;;13.60;99.90;;;;;;5012129;28;20022;-70
2024/02/29 12:28:11;;;;;;;22.50;15.57;;;;;;;;;;5012053;28;20022;-71
2024/02/29 12:30:36;;;;;;;26.13;16.65;;;14.80;99.90;;;;;;5012019;28;20447;-70
2024/02/29 12:33:03;;;;;;;26.05;17.15;;;14.90;99.90;;;;;;5008797;28;20108;-70
2024/02/29 12:35:31;;;;;;;22.38;16.30;;;15.10;98.70;;;;;;5011607;28;20452;-70
2024/02/29 12:37:58;;;;;;;24.05;16.02;;;15.20;98.20;;;;;;5010466;28;20022;-71
2024/02/29 12:40:25;;;;;;;22.00;14.77;;;15.20;98.00;;;;;;5007067;28;20064;-71
2024/02/29 12:42:51;;;;;;;20.55;14.15;;;15.40;97.40;;;;;;5007593;28;20053;-70
2024/02/29 12:45:17;;;;;;;19.67;14.40;;;;;;;;;;5003496;28;20447;-70
2024/02/29 12:47:43;;;;;;;21.65;14.80;;;;;;;;;;5012111;28;20095;-71
2024/02/29 12:50:09;;;;;;;23.95;12.98;;;;;;;;;;5013637;28;20021;-71